Time;durP1;ratioP1;P1;durP2;ratioP2;P2;SDS_P1;SDS_P2;PMS_P1;PMS_P2;Temp;Humidity;BMP_temperature;BMP_pressure;BME280_temperature;BME280_humidity;BME280_pressure;Samples;Min_cycle;Max_cycle;Signal;HPM_P1;HPM_P2
2023/09/14 00:00:44;;;;;;;3.03;0.70;;;14.30;99.90;;;;;;5117309;28;20044;-73
2023/09/14 00:03:10;;;;;;;3.22;0.70;;;14.30;99.90;;;;;;5115770;28;20084;-73
2023/09/14 00:05:42;;;;;;;4.25;0.70;;;14.30;99.90;;;;;;5115946;28;20126;-73
2023/09/14 00:08:09;;;;;;;2.20;0.65;;;14.30;99.90;;;;;;5115865;28;20048;-73
2023/09/14 00:10:35;;;;;;;6.32;1.20;;;14.30;99.90;;;;;;5115527;28;20047;-73
2023/09/14 00:13:04;;;;;;;2.67;0.60;;;14.30;99.90;;;;;;5115449;28;20079;-73
2023/09/14 00:15:30;;;;;;;3.28;0.75;;;14.30;99.90;;;;;;5115537;28;20048;-73
2023/09/14 00:17:56;;;;;;;3.05;0.80;;;14.30;99.90;;;;;;5114977;28;20600;-73
2023/09/14 00:20:23;;;;;;;4.05;0.68;;;14.30;99.90;;;;;;5116444;28;20043;-73
2023/09/14 00:22:50;;;;;;;4.80;0.85;;;14.30;99.90;;;;;;5115268;28;20126;-73
2023/09/14 00:25:20;;;;;;;3.35;0.80;;;14.30;99.90;;;;;;5116659;28;20047;-73
2023/09/14 00:27:46;;;;;;;3.75;0.63;;;14.30;99.90;;;;;;5115534;28;20052;-73
2023/09/14 00:30:14;;;;;;;2.20;0.70;;;14.30;99.90;;;;;;5116508;27;20043;-73
2023/09/14 00:32:40;;;;;;;2.13;0.60;;;14.30;99.90;;;;;;5118579;27;20055;-73
2023/09/14 00:35:07;;;;;;;4.72;0.60;;;14.20;99.90;;;;;;5118430;27;20130;-73
2023/09/14 00:37:33;;;;;;;4.13;0.70;;;14.20;99.90;;;;;;5118431;27;20065;-73
2023/09/14 00:39:59;;;;;;;5.15;0.80;;;14.10;99.90;;;;;;5136811;27;20043;-73
2023/09/14 00:42:24;;;;;;;5.05;0.70;;;14.00;99.90;;;;;;5118446;27;20072;-73
2023/09/14 00:44:50;;;;;;;2.80;0.90;;;14.00;99.90;;;;;;5136930;27;20035;-73
2023/09/14 00:47:16;;;;;;;4.75;0.88;;;14.00;99.90;;;;;;5118678;27;20059;-73
2023/09/14 00:49:42;;;;;;;2.22;0.52;;;14.00;99.90;;;;;;5118091;27;20055;-73
2023/09/14 00:52:10;;;;;;;2.65;0.90;;;14.00;99.90;;;;;;5136472;27;20470;-73
2023/09/14 00:54:37;;;;;;;3.22;0.65;;;14.00;99.90;;;;;;5118224;27;20047;-73
2023/09/14 00:57:04;;;;;;;5.60;0.75;;;14.00;99.90;;;;;;5136564;27;20043;-73
2023/09/14 00:59:30;;;;;;;2.70;0.60;;;14.00;99.90;;;;;;5118121;27;20493;-73
2023/09/14 01:01:56;;;;;;;6.20;1.05;;;14.10;99.90;;;;;;5118092;27;20114;-73
2023/09/14 01:04:22;;;;;;;2.28;0.70;;;14.10;99.90;;;;;;5117927;27;20192;-73
2023/09/14 01:06:48;;;;;;;4.97;0.80;;;14.10;99.90;;;;;;5117897;27;20044;-73
2023/09/14 01:09:14;;;;;;;2.72;0.50;;;14.10;99.90;;;;;;5136302;27;20077;-73
2023/09/14 01:11:39;;;;;;;3.53;0.70;;;14.20;99.90;;;;;;5117710;27;20367;-73
2023/09/14 01:14:17;;;;;;;4.60;0.80;;;14.20;99.90;;;;;;5117849;27;20591;-73
2023/09/14 01:16:57;;;;;;;3.25;0.75;;;14.20;99.90;;;;;;5136221;27;20126;-73
2023/09/14 01:19:44;;;;;;;4.65;0.90;;;14.20;99.90;;;;;;5117883;27;20130;-73
2023/09/14 01:22:24;;;;;;;3.60;0.70;;;14.20;99.90;;;;;;5135949;27;20066;-73
2023/09/14 01:25:01;;;;;;;3.28;0.50;;;14.10;99.90;;;;;;5135947;27;20046;-73
2023/09/14 01:27:27;;;;;;;2.72;0.77;;;14.00;99.90;;;;;;5134587;27;20091;-73
2023/09/14 01:29:56;;;;;;;2.88;0.63;;;13.80;99.90;;;;;;5135881;27;20039;-73
2023/09/14 01:32:26;;;;;;;3.40;0.55;;;13.80;99.90;;;;;;5117096;27;20054;-73
2023/09/14 01:34:52;;;;;;;2.92;0.65;;;13.70;99.90;;;;;;5135917;27;20047;-72
2023/09/14 01:37:18;;;;;;;2.28;0.60;;;13.50;99.90;;;;;;5117622;27;20079;-73
2023/09/14 01:39:45;;;;;;;3.33;0.60;;;13.40;99.90;;;;;;5135786;27;20104;-73
2023/09/14 01:42:11;;;;;;;3.97;0.80;;;13.40;99.90;;;;;;5135472;27;20363;-73
2023/09/14 01:44:37;;;;;;;5.63;0.60;;;13.20;99.90;;;;;;5135634;27;20068;-73
2023/09/14 01:47:04;;;;;;;6.28;0.77;;;13.10;99.90;;;;;;5135741;27;20489;-73
2023/09/14 01:49:30;;;;;;;3.97;0.88;;;13.00;99.90;;;;;;5117467;27;20035;-73
2023/09/14 01:51:55;;;;;;;3.05;0.73;;;12.90;99.90;;;;;;5117217;27;20061;-73
2023/09/14 01:54:21;;;;;;;3.42;0.80;;;12.90;99.90;;;;;;5116864;27;20478;-73
2023/09/14 01:56:47;;;;;;;2.67;1.00;;;12.70;99.90;;;;;;5135523;27;20035;-73
2023/09/14 01:59:13;;;;;;;4.57;1.00;;;12.70;99.90;;;;;;5135326;27;20386;-73
2023/09/14 02:01:38;;;;;;;25.92;2.42;;;12.60;99.90;;;;;;5116964;27;20043;-73
2023/09/14 02:04:04;;;;;;;3.55;0.73;;;12.50;99.90;;;;;;5116661;27;20417;-73
2023/09/14 02:06:30;;;;;;;3.47;0.70;;;12.40;99.90;;;;;;5117026;27;20095;-73
2023/09/14 02:08:55;;;;;;;3.20;0.80;;;12.30;99.90;;;;;;5116708;27;20044;-73
2023/09/14 02:11:21;;;;;;;4.00;0.85;;;12.30;99.90;;;;;;5116633;27;20172;-73
2023/09/14 02:13:47;;;;;;;3.47;0.80;;;12.30;99.90;;;;;;5116574;27;20043;-73
2023/09/14 02:16:12;;;;;;;4.88;0.98;;;12.30;99.90;;;;;;5135063;27;20043;-73
2023/09/14 02:18:38;;;;;;;2.35;0.70;;;12.20;99.90;;;;;;5134932;27;20047;-73
2023/09/14 02:21:03;;;;;;;4.22;1.02;;;12.10;99.90;;;;;;5134922;27;20126;-73
2023/09/14 02:23:29;;;;;;;4.07;0.77;;;12.10;99.90;;;;;;5134705;27;20054;-73
2023/09/14 02:25:55;;;;;;;3.78;0.80;;;12.00;99.90;;;;;;5134839;27;20051;-73
2023/09/14 02:28:20;;;;;;;3.35;0.80;;;12.00;99.90;;;;;;5134924;27;20133;-73
2023/09/14 02:30:47;;;;;;;2.42;0.68;;;12.00;99.90;;;;;;5112659;28;20091;-73
2023/09/14 02:33:16;;;;;;;4.50;0.77;;;11.90;99.90;;;;;;5112941;28;20050;-72
2023/09/14 02:35:50;;;;;;;3.97;0.90;;;11.90;99.90;;;;;;5114265;28;20042;-73
2023/09/14 02:38:17;;;;;;;6.43;1.13;;;11.80;99.90;;;;;;5114262;28;20058;-73
2023/09/14 02:40:42;;;;;;;4.80;0.75;;;11.80;99.90;;;;;;5113714;28;20036;-73
2023/09/14 02:43:08;;;;;;;3.17;0.80;;;11.70;99.90;;;;;;5114259;28;20096;-73
2023/09/14 02:45:34;;;;;;;5.07;1.27;;;11.70;99.90;;;;;;5112966;28;20051;-73
2023/09/14 02:47:59;;;;;;;3.75;1.20;;;11.70;99.90;;;;;;5112943;28;20058;-73
2023/09/14 02:50:25;;;;;;;6.53;1.02;;;11.60;99.90;;;;;;5112917;28;20054;-72
2023/09/14 02:52:50;;;;;;;3.78;0.93;;;11.60;99.90;;;;;;5112849;28;20050;-73
2023/09/14 02:55:16;;;;;;;3.10;1.20;;;11.60;99.90;;;;;;5112986;28;20078;-73
2023/09/14 02:57:42;;;;;;;4.38;1.40;;;11.60;99.90;;;;;;5113014;28;20047;-73
2023/09/14 03:00:11;;;;;;;5.13;1.08;;;11.50;99.90;;;;;;5112854;28;20131;-73
2023/09/14 03:02:40;;;;;;;4.15;1.85;;;11.50;99.90;;;;;;5112984;28;20501;-72
2023/09/14 03:05:06;;;;;;;2.85;0.90;;;11.50;99.90;;;;;;5112735;28;20054;-73
2023/09/14 03:07:31;;;;;;;1.48;0.65;;;11.50;99.90;;;;;;5112607;28;20052;-73
2023/09/14 03:09:57;;;;;;;3.10;1.23;;;11.40;99.90;;;;;;5112663;28;20055;-73
2023/09/14 03:12:23;;;;;;;3.50;1.10;;;11.50;99.90;;;;;;5112471;28;20097;-73
2023/09/14 03:14:48;;;;;;;2.55;0.90;;;11.50;99.90;;;;;;5113858;28;20077;-73
2023/09/14 03:17:14;;;;;;;6.60;1.40;;;11.50;99.90;;;;;;5112770;28;20382;-73
2023/09/14 03:19:42;;;;;;;3.00;1.02;;;11.60;99.90;;;;;;5112321;28;20043;-72
2023/09/14 03:22:07;;;;;;;2.80;1.00;;;11.50;99.90;;;;;;5113628;28;20123;-72
2023/09/14 03:24:33;;;;;;;4.78;1.52;;;11.50;99.90;;;;;;5112389;28;20130;-73
2023/09/14 03:26:58;;;;;;;3.60;1.20;;;11.60;99.90;;;;;;5112458;28;20051;-73
2023/09/14 03:29:24;;;;;;;5.50;1.55;;;11.60;99.90;;;;;;5132541;28;20086;-72
2023/09/14 03:31:50;;;;;;;3.22;1.33;;;11.60;99.90;;;;;;5148919;27;20055;-72
2023/09/14 03:34:17;;;;;;;4.20;1.42;;;11.70;99.90;;;;;;5136442;27;20193;-73
2023/09/14 03:36:42;;;;;;;4.20;1.65;;;11.60;99.90;;;;;;5154920;27;20049;-73
2023/09/14 03:39:08;;;;;;;4.32;1.35;;;11.70;99.90;;;;;;5136653;27;20129;-73
2023/09/14 03:41:34;;;;;;;5.68;2.10;;;11.70;99.90;;;;;;5154862;27;20481;-73
2023/09/14 03:44:00;;;;;;;3.63;1.30;;;11.70;99.90;;;;;;5154577;27;20046;-73
2023/09/14 03:46:25;;;;;;;5.50;1.55;;;11.70;99.90;;;;;;5136251;27;20064;-73
2023/09/14 03:48:51;;;;;;;7.47;2.20;;;11.70;99.90;;;;;;5136100;27;20095;-73
2023/09/14 03:51:16;;;;;;;5.15;1.85;;;11.70;99.90;;;;;;5155363;27;20508;-73
2023/09/14 03:53:42;;;;;;;5.32;2.30;;;11.70;99.90;;;;;;5139890;27;20038;-73
2023/09/14 03:56:08;;;;;;;5.70;2.38;;;11.80;99.90;;;;;;5140133;27;20366;-72
2023/09/14 03:58:33;;;;;;;7.47;2.20;;;11.80;99.90;;;;;;5139948;27;20081;-73
2023/09/14 04:00:59;;;;;;;5.93;2.35;;;11.70;99.90;;;;;;5140089;27;20049;-72
2023/09/14 04:03:25;;;;;;;5.90;2.70;;;11.70;99.90;;;;;;5139496;27;20043;-73
2023/09/14 04:05:50;;;;;;;8.60;3.03;;;11.70;99.90;;;;;;5158207;27;20043;-73
2023/09/14 04:08:16;;;;;;;8.10;2.50;;;11.70;99.90;;;;;;5139587;27;20405;-73
2023/09/14 04:10:42;;;;;;;7.10;2.70;;;11.70;99.90;;;;;;5139893;27;20050;-72
2023/09/14 04:13:32;;;;;;;6.22;2.25;;;11.70;99.90;;;;;;5158040;27;20053;-73
2023/09/14 04:16:00;;;;;;;5.72;2.30;;;11.70;99.90;;;;;;5158195;27;20039;-73
2023/09/14 04:18:27;;;;;;;6.30;2.47;;;11.70;99.90;;;;;;5157971;27;20087;-73
2023/09/14 04:20:53;;;;;;;5.50;2.70;;;11.70;99.90;;;;;;5139372;27;20095;-73
2023/09/14 04:23:20;;;;;;;7.30;2.75;;;11.60;99.90;;;;;;5157965;27;20053;-73
2023/09/14 04:25:47;;;;;;;10.13;2.60;;;11.60;99.90;;;;;;5157815;27;20030;-73
2023/09/14 04:28:17;;;;;;;7.57;2.17;;;11.60;99.90;;;;;;5139593;27;20549;-72
2023/09/14 04:30:58;;;;;;;5.40;2.85;;;11.60;99.90;;;;;;5157671;27;20047;-73
2023/09/14 04:33:24;;;;;;;6.75;2.50;;;11.50;99.90;;;;;;5157707;27;20082;-72
2023/09/14 04:35:56;;;;;;;6.03;2.33;;;11.50;99.90;;;;;;5139284;27;20046;-73
2023/09/14 04:38:22;;;;;;;4.68;2.22;;;11.40;99.90;;;;;;5157801;27;20042;-72
2023/09/14 04:40:48;;;;;;;8.10;2.45;;;11.40;99.90;;;;;;5157634;27;20117;-73
2023/09/14 04:43:15;;;;;;;5.25;2.03;;;11.40;99.90;;;;;;5138853;27;20042;-73
2023/09/14 04:45:40;;;;;;;5.25;1.95;;;11.40;99.90;;;;;;5139111;27;20046;-73
2023/09/14 04:48:06;;;;;;;6.47;2.35;;;11.40;99.90;;;;;;5157489;27;20413;-73
2023/09/14 04:50:33;;;;;;;5.50;2.25;;;11.40;99.90;;;;;;5139083;27;20039;-73
2023/09/14 04:52:59;;;;;;;6.60;2.40;;;11.30;99.90;;;;;;5138728;27;20147;-73
2023/09/14 04:55:25;;;;;;;5.82;1.88;;;11.30;99.90;;;;;;5156118;27;20565;-72
2023/09/14 04:57:51;;;;;;;5.63;1.80;;;11.30;99.90;;;;;;5137594;27;20078;-72
2023/09/14 05:00:17;;;;;;;5.10;1.67;;;11.30;99.90;;;;;;5138713;27;20054;-72
2023/09/14 05:02:45;;;;;;;5.78;1.80;;;11.20;99.90;;;;;;5138327;27;20087;-72
2023/09/14 05:05:11;;;;;;;8.13;2.47;;;11.20;99.90;;;;;;5138251;27;20051;-72
2023/09/14 05:07:38;;;;;;;9.50;1.98;;;11.20;99.90;;;;;;5156916;27;20062;-72
2023/09/14 05:10:04;;;;;;;5.80;1.80;;;11.20;99.90;;;;;;5138433;27;20046;-72
2023/09/14 05:12:30;;;;;;;4.15;1.88;;;11.20;99.90;;;;;;5138015;27;20064;-72
2023/09/14 05:14:55;;;;;;;4.95;1.58;;;11.10;99.90;;;;;;5138457;27;20038;-72
2023/09/14 05:17:21;;;;;;;6.57;2.08;;;11.10;99.90;;;;;;5138174;27;20039;-72
2023/09/14 05:19:46;;;;;;;6.07;1.85;;;11.10;99.90;;;;;;5138518;27;20039;-73
2023/09/14 05:22:12;;;;;;;5.13;1.70;;;11.10;99.90;;;;;;5156510;27;20039;-73
2023/09/14 05:24:38;;;;;;;4.85;1.92;;;11.10;99.90;;;;;;5156637;27;20042;-73
2023/09/14 05:27:04;;;;;;;7.07;1.83;;;11.10;99.90;;;;;;5137852;27;20122;-72
2023/09/14 05:29:30;;;;;;;3.70;1.35;;;11.10;99.90;;;;;;5136613;27;20138;-72
2023/09/14 05:31:56;;;;;;;5.93;1.52;;;11.10;99.90;;;;;;5156016;27;20129;-72
2023/09/14 05:34:22;;;;;;;6.85;1.55;;;11.10;99.90;;;;;;5156314;27;20506;-72
2023/09/14 05:36:49;;;;;;;5.03;1.52;;;11.10;99.90;;;;;;5156207;27;20067;-72
2023/09/14 05:39:14;;;;;;;6.13;1.70;;;11.20;99.90;;;;;;5137599;27;20098;-72
2023/09/14 05:41:40;;;;;;;4.38;1.38;;;11.20;99.90;;;;;;5137619;27;20047;-72
2023/09/14 05:44:09;;;;;;;13.88;2.33;;;11.20;99.90;;;;;;5137548;27;20039;-73
2023/09/14 05:46:36;;;;;;;4.47;1.25;;;11.30;99.90;;;;;;5156320;27;20171;-72
2023/09/14 05:49:02;;;;;;;5.90;1.80;;;11.30;99.90;;;;;;5137602;27;20058;-72
2023/09/14 05:51:28;;;;;;;3.83;1.40;;;11.40;99.90;;;;;;5156023;27;20114;-72
2023/09/14 05:53:54;;;;;;;5.32;1.33;;;11.40;99.90;;;;;;5155715;27;20477;-72
2023/09/14 05:56:20;;;;;;;3.53;1.30;;;11.50;99.90;;;;;;5155796;27;20427;-72
2023/09/14 05:58:46;;;;;;;5.88;1.67;;;11.60;99.90;;;;;;5137492;27;20035;-72
2023/09/14 06:01:11;;;;;;;4.47;1.33;;;11.70;99.90;;;;;;5155694;27;20557;-73
2023/09/14 06:03:37;;;;;;;5.00;1.35;;;11.80;99.90;;;;;;5155941;27;20035;-73
2023/09/14 06:06:03;;;;;;;5.05;1.67;;;11.90;99.90;;;;;;5137301;27;20393;-73
2023/09/14 06:08:30;;;;;;;6.18;1.70;;;12.00;99.90;;;;;;5137067;27;20135;-71
2023/09/14 06:10:56;;;;;;;5.07;1.33;;;12.10;99.90;;;;;;5148378;27;20047;-73
2023/09/14 06:13:21;;;;;;;9.98;1.98;;;12.20;99.90;;;;;;5142728;27;20035;-71
2023/09/14 06:15:47;;;;;;;2.75;1.20;;;12.30;99.90;;;;;;5134071;27;20522;-71
2023/09/14 06:18:12;;;;;;;7.18;1.40;;;12.40;99.90;;;;;;5134640;27;20039;-71
2023/09/14 06:20:38;;;;;;;4.28;1.40;;;12.50;99.90;;;;;;5116145;27;20394;-74
2023/09/14 06:23:04;;;;;;;5.78;1.25;;;12.60;99.90;;;;;;5116002;27;20477;-72
2023/09/14 06:25:29;;;;;;;5.95;1.50;;;12.60;99.90;;;;;;5116119;27;20122;-70
2023/09/14 06:27:55;;;;;;;6.13;1.52;;;12.80;99.90;;;;;;5134344;27;20082;-72
2023/09/14 06:30:21;;;;;;;6.38;1.52;;;12.90;99.90;;;;;;5134211;27;20043;-71
2023/09/14 06:32:46;;;;;;;4.07;1.02;;;13.00;99.90;;;;;;5134374;27;20050;-71
2023/09/14 06:35:13;;;;;;;5.20;1.23;;;13.10;99.90;;;;;;5115863;27;20067;-71
2023/09/14 06:37:39;;;;;;;4.88;1.10;;;13.20;99.90;;;;;;5134251;27;20078;-75
2023/09/14 06:40:06;;;;;;;7.60;1.23;;;13.30;99.90;;;;;;5115831;27;20481;-71
2023/09/14 06:42:32;;;;;;;5.07;1.38;;;13.40;99.90;;;;;;5115870;27;20477;-71
2023/09/14 06:44:58;;;;;;;4.72;1.25;;;13.50;99.90;;;;;;5115917;28;20079;-73
2023/09/14 06:47:23;;;;;;;6.13;1.42;;;13.60;99.90;;;;;;5115804;27;20126;-72
2023/09/14 06:49:49;;;;;;;4.07;1.17;;;13.70;99.90;;;;;;5115694;28;20142;-72
2023/09/14 06:52:15;;;;;;;3.83;1.33;;;13.90;99.90;;;;;;5134086;28;20047;-73
2023/09/14 06:54:40;;;;;;;7.55;1.33;;;13.90;99.90;;;;;;5115815;28;20051;-72
2023/09/14 06:57:06;;;;;;;6.53;1.38;;;14.00;99.90;;;;;;5115739;28;20039;-73
2023/09/14 06:59:31;;;;;;;4.95;0.90;;;14.10;99.90;;;;;;5115712;28;20099;-73
2023/09/14 07:01:57;;;;;;;5.18;1.67;;;14.20;99.90;;;;;;5115796;28;20040;-73
2023/09/14 07:04:23;;;;;;;4.07;1.08;;;14.30;99.90;;;;;;5115589;27;20047;-72
2023/09/14 07:06:49;;;;;;;9.32;1.30;;;14.40;99.90;;;;;;5116040;28;20062;-72
2023/09/14 07:09:15;;;;;;;7.93;1.55;;;14.40;99.90;;;;;;5115597;28;20075;-73
2023/09/14 07:11:46;;;;;;;7.30;1.20;;;14.40;99.90;;;;;;5115820;28;20092;-72
2023/09/14 07:14:15;;;;;;;4.70;1.55;;;14.50;99.90;;;;;;5115582;28;20475;-72
2023/09/14 07:16:40;;;;;;;4.80;1.17;;;14.60;99.90;;;;;;5133966;27;20042;-72
2023/09/14 07:19:06;;;;;;;4.22;1.33;;;14.60;99.90;;;;;;5115704;27;20039;-73
2023/09/14 07:21:37;;;;;;;5.25;1.27;;;14.70;99.90;;;;;;5133992;27;20435;-72
2023/09/14 07:24:07;;;;;;;7.38;1.27;;;14.80;99.90;;;;;;5115881;28;20047;-73
2023/09/14 07:26:41;;;;;;;4.97;1.10;;;14.90;99.90;;;;;;5118198;27;20081;-72
2023/09/14 07:29:09;;;;;;;3.97;1.35;;;15.00;99.90;;;;;;5138164;27;20043;-71
2023/09/14 07:31:36;;;;;;;5.05;1.48;;;15.10;99.90;;;;;;5119178;27;20047;-71
2023/09/14 07:34:03;;;;;;;5.53;1.40;;;15.10;99.90;;;;;;5137479;27;20055;-73
2023/09/14 07:36:29;;;;;;;4.82;1.13;;;15.20;99.90;;;;;;5119560;27;20039;-72
2023/09/14 07:38:54;;;;;;;6.50;1.42;;;15.20;99.90;;;;;;5119481;27;20119;-72
2023/09/14 07:41:20;;;;;;;6.07;1.10;;;15.30;99.90;;;;;;5119541;27;20547;-73
2023/09/14 07:43:45;;;;;;;8.15;1.38;;;15.40;99.90;;;;;;5119260;27;20068;-73
2023/09/14 07:46:11;;;;;;;6.57;1.73;;;15.40;99.90;;;;;;5119063;27;20086;-73
2023/09/14 07:48:37;;;;;;;5.00;1.30;;;15.40;99.90;;;;;;5119418;27;20053;-73
2023/09/14 07:51:02;;;;;;;6.22;1.35;;;15.50;99.90;;;;;;5118986;27;20039;-73
2023/09/14 07:53:28;;;;;;;3.90;1.20;;;15.60;99.90;;;;;;5119150;27;20043;-73
2023/09/14 07:55:54;;;;;;;4.80;1.30;;;15.60;99.90;;;;;;5118873;27;20458;-73
2023/09/14 07:58:20;;;;;;;3.92;1.40;;;15.70;99.90;;;;;;5137616;27;20077;-73
2023/09/14 08:00:47;;;;;;;9.05;1.50;;;15.70;99.90;;;;;;5118930;27;20394;-73
2023/09/14 08:03:14;;;;;;;6.45;1.45;;;15.80;99.90;;;;;;5118784;27;20455;-73
2023/09/14 08:05:40;;;;;;;4.63;1.13;;;15.90;99.90;;;;;;5137268;27;20068;-73
2023/09/14 08:08:06;;;;;;;3.72;1.23;;;16.00;99.90;;;;;;5118939;27;20394;-73
2023/09/14 08:10:32;;;;;;;4.78;1.10;;;16.00;99.90;;;;;;5118819;27;20504;-73
2023/09/14 08:13:00;;;;;;;6.78;1.30;;;16.10;99.90;;;;;;5118788;27;20047;-73
2023/09/14 08:15:27;;;;;;;8.63;1.38;;;16.20;99.90;;;;;;5136845;27;20410;-73
2023/09/14 08:17:52;;;;;;;5.85;1.33;;;16.40;99.90;;;;;;5118403;27;20066;-73
2023/09/14 08:20:18;;;;;;;4.50;1.00;;;16.50;99.90;;;;;;5118792;27;20047;-74
2023/09/14 08:22:44;;;;;;;4.80;1.27;;;16.50;99.90;;;;;;5118495;27;20039;-73
2023/09/14 08:25:10;;;;;;;4.38;1.13;;;16.70;99.90;;;;;;5118599;27;20047;-73
2023/09/14 08:27:38;;;;;;;6.00;0.88;;;16.80;99.90;;;;;;5118610;27;20039;-73
2023/09/14 08:30:11;;;;;;;3.67;1.08;;;16.90;99.90;;;;;;5136884;27;20150;-73
2023/09/14 08:32:37;;;;;;;7.93;1.40;;;17.00;99.90;;;;;;5118459;27;20047;-73
2023/09/14 08:35:27;;;;;;;5.38;0.90;;;17.10;99.90;;;;;;5118557;27;20119;-73
2023/09/14 08:37:54;;;;;;;5.93;1.20;;;17.20;99.90;;;;;;5117699;27;20051;-72
2023/09/14 08:40:20;;;;;;;5.45;1.10;;;17.40;99.90;;;;;;5118325;27;20452;-73
2023/09/14 08:42:51;;;;;;;4.25;1.00;;;17.30;99.90;;;;;;5118036;27;20543;-73
2023/09/14 08:45:31;;;;;;;7.30;1.42;;;17.50;99.90;;;;;;5118017;27;20422;-73
2023/09/14 08:47:59;;;;;;;8.73;1.10;;;17.60;99.90;;;;;;5117906;27;20126;-72
2023/09/14 08:50:26;;;;;;;7.00;1.20;;;17.60;99.90;;;;;;5117815;27;20047;-72
2023/09/14 08:52:53;;;;;;;11.95;1.45;;;17.60;99.90;;;;;;5117567;27;20050;-71
2023/09/14 08:55:21;;;;;;;5.63;1.13;;;17.60;99.90;;;;;;5118026;27;20047;-71
2023/09/14 08:57:47;;;;;;;3.38;1.02;;;17.60;99.90;;;;;;5136028;27;20505;-73
2023/09/14 09:00:15;;;;;;;5.45;1.30;;;17.50;99.90;;;;;;5136005;27;20047;-72
2023/09/14 09:02:48;;;;;;;5.88;1.17;;;17.60;99.90;;;;;;5136506;27;20043;-73
2023/09/14 09:05:15;;;;;;;7.35;1.13;;;17.60;99.90;;;;;;5118000;27;20035;-73
2023/09/14 09:07:42;;;;;;;6.40;1.38;;;17.60;99.90;;;;;;5117749;27;20047;-72
2023/09/14 09:10:22;;;;;;;8.15;1.08;;;17.50;99.90;;;;;;5117911;27;20065;-73
2023/09/14 09:13:00;;;;;;;4.68;1.17;;;17.40;99.90;;;;;;5128947;27;20038;-74
2023/09/14 09:15:27;;;;;;;6.35;1.38;;;17.40;99.90;;;;;;5137974;27;20070;-74
2023/09/14 09:17:54;;;;;;;12.07;1.65;;;17.40;99.90;;;;;;5138085;27;20435;-74
2023/09/14 09:20:24;;;;;;;7.00;1.10;;;17.50;99.90;;;;;;5137494;27;20039;-74
2023/09/14 09:22:57;;;;;;;7.15;1.30;;;17.60;99.90;;;;;;5156909;27;20129;-74
2023/09/14 09:25:23;;;;;;;4.30;1.00;;;17.60;99.90;;;;;;5137938;27;20495;-73
2023/09/14 09:28:00;;;;;;;7.65;1.33;;;17.60;99.90;;;;;;5138058;27;20046;-74
2023/09/14 09:30:31;;;;;;;6.80;1.40;;;17.70;99.90;;;;;;5137463;27;20078;-74
2023/09/14 09:32:58;;;;;;;5.32;1.10;;;17.70;99.90;;;;;;5137677;27;20050;-74
2023/09/14 09:35:26;;;;;;;4.78;1.40;;;17.60;99.90;;;;;;5137955;27;20107;-74
2023/09/14 09:37:56;;;;;;;6.93;1.30;;;17.50;99.90;;;;;;5156223;27;20046;-73
2023/09/14 09:40:24;;;;;;;5.82;1.35;;;17.60;99.90;;;;;;5137656;27;20387;-73
2023/09/14 09:42:52;;;;;;;10.63;1.67;;;17.60;99.90;;;;;;5137489;27;20034;-73
2023/09/14 09:45:23;;;;;;;5.38;1.55;;;17.60;99.90;;;;;;5156348;27;20125;-74
2023/09/14 09:47:49;;;;;;;4.13;1.15;;;17.60;99.90;;;;;;5137807;27;20110;-73
2023/09/14 09:50:19;;;;;;;5.78;1.42;;;17.60;99.90;;;;;;5136660;27;20053;-73
2023/09/14 09:52:46;;;;;;;7.22;1.50;;;17.60;99.90;;;;;;5136982;27;20042;-72
2023/09/14 09:55:26;;;;;;;5.45;1.55;;;17.70;99.90;;;;;;5156058;27;20081;-73
2023/09/14 09:57:53;;;;;;;8.45;2.00;;;17.70;99.90;;;;;;5137548;27;20119;-72
2023/09/14 10:00:20;;;;;;;6.43;2.10;;;17.70;99.90;;;;;;5137708;27;20497;-73
2023/09/14 10:02:53;;;;;;;8.10;2.58;;;17.80;99.90;;;;;;5137534;27;20549;-72
2023/09/14 10:05:33;;;;;;;5.60;1.55;;;17.90;99.90;;;;;;5137443;27;20122;-73
2023/09/14 10:08:02;;;;;;;7.63;1.75;;;18.10;99.90;;;;;;5137640;27;20469;-73
2023/09/14 10:10:30;;;;;;;10.23;1.70;;;18.10;99.90;;;;;;5137111;27;20484;-72
2023/09/14 10:12:58;;;;;;;4.97;1.58;;;18.20;99.90;;;;;;5136979;27;20050;-72
2023/09/14 10:15:28;;;;;;;4.88;1.75;;;18.20;99.90;;;;;;5137291;27;20088;-72
2023/09/14 10:17:56;;;;;;;6.65;1.70;;;18.30;99.90;;;;;;5137026;27;20042;-73
2023/09/14 10:20:23;;;;;;;6.85;1.30;;;18.30;99.90;;;;;;5136873;27;20409;-72
2023/09/14 10:22:49;;;;;;;7.13;1.80;;;18.40;99.90;;;;;;5136814;27;20054;-72
2023/09/14 10:25:16;;;;;;;4.78;1.65;;;18.50;99.90;;;;;;5136902;27;20114;-74
2023/09/14 10:27:42;;;;;;;8.52;1.67;;;18.60;99.90;;;;;;5137071;27;20462;-73
2023/09/14 10:30:17;;;;;;;7.65;1.70;;;18.70;99.90;;;;;;5129414;27;20490;-72
2023/09/14 10:32:53;;;;;;;6.03;1.70;;;18.80;99.90;;;;;;5125627;27;20066;-73
2023/09/14 10:35:20;;;;;;;8.20;1.80;;;18.70;99.90;;;;;;5116232;27;20539;-72
2023/09/14 10:37:46;;;;;;;8.32;2.05;;;18.80;99.90;;;;;;5125569;27;20046;-73
2023/09/14 10:40:13;;;;;;;8.93;2.30;;;18.90;99.90;;;;;;5136195;27;20542;-72
2023/09/14 10:42:42;;;;;;;7.72;1.80;;;19.00;99.90;;;;;;5136505;27;20045;-72
2023/09/14 10:45:13;;;;;;;11.65;2.10;;;19.00;99.90;;;;;;5135966;27;20034;-72
2023/09/14 10:47:43;;;;;;;9.00;2.95;;;18.90;99.90;;;;;;5129796;27;20121;-73
2023/09/14 10:50:10;;;;;;;7.80;2.28;;;18.80;99.90;;;;;;5149398;27;20126;-73
2023/09/14 10:52:37;;;;;;;6.97;1.80;;;18.70;99.90;;;;;;5146377;27;20031;-73
2023/09/14 10:55:08;;;;;;;7.38;2.10;;;18.90;99.90;;;;;;5151953;27;20065;-73
2023/09/14 10:57:35;;;;;;;9.82;2.30;;;19.10;99.90;;;;;;5133431;27;20490;-74
2023/09/14 11:00:04;;;;;;;8.05;1.92;;;19.20;99.90;;;;;;5133673;27;20055;-74
2023/09/14 11:02:51;;;;;;;8.13;2.08;;;19.30;99.90;;;;;;5139733;27;20062;-73
2023/09/14 11:05:42;;;;;;;4.82;1.88;;;19.50;99.90;;;;;;5133894;27;20039;-73
2023/09/14 11:08:09;;;;;;;6.65;1.92;;;19.50;99.90;;;;;;5134844;27;20043;-74
2023/09/14 11:10:38;;;;;;;9.70;1.95;;;19.60;99.90;;;;;;5137448;27;20114;-73
2023/09/14 11:13:22;;;;;;;6.43;1.80;;;19.70;99.90;;;;;;5140315;27;20528;-74
2023/09/14 11:15:57;;;;;;;7.00;2.10;;;19.60;99.90;;;;;;5140461;27;20493;-74
2023/09/14 11:18:49;;;;;;;6.00;2.17;;;19.70;99.90;;;;;;5140579;27;20077;-74
2023/09/14 11:21:33;;;;;;;7.47;2.17;;;19.70;99.90;;;;;;5140435;27;20050;-73
2023/09/14 11:23:59;;;;;;;5.75;2.05;;;19.70;99.90;;;;;;5140309;27;20046;-73
2023/09/14 11:26:32;;;;;;;7.82;1.73;;;19.60;99.90;;;;;;5128173;27;20054;-73
2023/09/14 11:28:58;;;;;;;;;;;19.70;99.90;;;;;;5118585;27;20125;-73
2023/09/14 11:31:35;;;;;;;10.98;2.55;;;19.80;99.90;;;;;;5120050;27;20072;-74
2023/09/14 11:34:13;;;;;;;8.60;2.47;;;19.80;99.90;;;;;;5128118;27;20053;-73
2023/09/14 11:36:42;;;;;;;6.95;1.90;;;19.80;99.90;;;;;;5128033;27;20475;-73
2023/09/14 11:39:10;;;;;;;7.82;1.80;;;19.80;99.90;;;;;;5137992;27;20049;-73
2023/09/14 11:41:57;;;;;;;6.63;2.20;;;19.70;99.90;;;;;;5119340;27;20046;-74
2023/09/14 11:44:24;;;;;;;7.78;1.83;;;19.80;99.90;;;;;;5119746;27;20054;-73
2023/09/14 11:46:50;;;;;;;7.30;2.17;;;19.90;99.90;;;;;;5119457;27;20069;-74
2023/09/14 11:49:23;;;;;;;7.38;2.42;;;19.80;99.90;;;;;;5147145;27;20129;-74
2023/09/14 11:51:51;;;;;;;7.53;2.17;;;19.90;99.90;;;;;;5128700;27;20047;-74
2023/09/14 11:54:17;;;;;;;8.20;2.03;;;19.90;99.90;;;;;;5152909;27;20066;-74
2023/09/14 11:56:42;;;;;;;8.60;1.90;;;20.00;99.90;;;;;;5130205;27;20046;-74
2023/09/14 11:59:10;;;;;;;9.13;2.00;;;20.10;99.90;;;;;;5152849;27;20041;-74
2023/09/14 12:01:35;;;;;;;6.57;2.55;;;20.20;99.90;;;;;;5132698;27;20038;-74
2023/09/14 12:04:05;;;;;;;8.25;2.53;;;20.20;99.90;;;;;;5137159;27;20092;-74
2023/09/14 12:06:32;;;;;;;10.73;3.08;;;20.20;99.90;;;;;;5134904;27;20050;-74
2023/09/14 12:08:58;;;;;;;6.32;2.15;;;20.40;99.90;;;;;;5138091;27;20035;-74
2023/09/14 12:11:37;;;;;;;9.20;2.58;;;20.40;99.90;;;;;;5136551;27;20050;-73
2023/09/14 12:14:03;;;;;;;7.35;2.28;;;20.40;99.90;;;;;;5136569;27;20508;-73
2023/09/14 12:16:28;;;;;;;9.68;2.25;;;20.50;99.90;;;;;;5150730;27;20051;-74
2023/09/14 12:18:55;;;;;;;7.97;2.47;;;20.50;99.90;;;;;;5132438;27;20037;-74
2023/09/14 12:21:22;;;;;;;10.27;3.17;;;20.50;99.90;;;;;;5133750;27;20117;-74
2023/09/14 12:23:50;;;;;;;11.57;2.90;;;20.50;99.90;;;;;;5134465;27;20086;-74
2023/09/14 12:26:21;;;;;;;9.80;2.25;;;20.60;99.90;;;;;;5136249;27;20070;-74
2023/09/14 12:28:51;;;;;;;7.03;2.20;;;20.60;99.90;;;;;;5132551;27;20489;-74
2023/09/14 12:31:24;;;;;;;14.50;3.10;;;20.60;99.90;;;;;;5153592;27;20058;-74
2023/09/14 12:33:52;;;;;;;8.68;2.58;;;20.60;99.90;;;;;;5133705;27;20075;-74
2023/09/14 12:36:18;;;;;;;8.18;2.30;;;20.50;99.90;;;;;;5134946;27;20117;-74
2023/09/14 12:38:46;;;;;;;10.00;2.45;;;20.50;99.90;;;;;;5137652;27;20082;-74
2023/09/14 12:41:11;;;;;;;12.65;3.55;;;20.40;99.90;;;;;;5136802;27;20466;-74
2023/09/14 12:43:38;;;;;;;6.97;2.50;;;20.60;99.90;;;;;;5157170;27;20076;-74
2023/09/14 12:46:04;;;;;;;8.18;3.00;;;20.60;99.90;;;;;;5136029;27;20121;-74
2023/09/14 12:48:30;;;;;;;6.30;2.45;;;20.50;99.90;;;;;;5135467;27;20049;-74